createdAt,value
2023-04-16T00:02:15.278Z,10.73
2023-04-16T00:04:42.807Z,13.13
2023-04-16T00:07:10.045Z,14.88
2023-04-16T00:09:37.278Z,10.48
2023-04-16T00:12:05.082Z,16.83
2023-04-16T00:14:32.729Z,11.70
2023-04-16T00:17:00.002Z,12.10
2023-04-16T00:19:27.291Z,16.60
2023-04-16T00:21:54.480Z,10.27
2023-04-16T00:24:40.056Z,14.75
2023-04-16T00:27:07.309Z,12.27
2023-04-16T00:29:35.014Z,16.23
2023-04-16T00:32:02.610Z,15.15
2023-04-16T00:34:30.406Z,15.80
2023-04-16T00:36:57.562Z,9.73
2023-04-16T00:39:24.713Z,14.55
2023-04-16T00:41:51.873Z,11.13
2023-04-16T00:44:19.116Z,13.88
2023-04-16T00:46:46.831Z,12.05
2023-04-16T00:49:14.971Z,17.75
2023-04-16T00:51:42.237Z,11.27
2023-04-16T00:54:09.592Z,11.88
2023-04-16T00:56:37.434Z,15.63
2023-04-16T00:59:04.784Z,10.25
2023-04-16T01:01:31.991Z,11.60
2023-04-16T01:03:59.254Z,22.60
2023-04-16T01:06:27.973Z,13.93
2023-04-16T01:08:55.505Z,9.93
2023-04-16T01:11:22.654Z,12.05
2023-04-16T01:13:49.929Z,19.95
2023-04-16T01:16:17.823Z,10.60
2023-04-16T01:18:45.182Z,10.65
2023-04-16T01:21:12.393Z,14.18
2023-04-16T01:23:39.825Z,12.43
2023-04-16T01:26:06.991Z,13.48
2023-04-16T01:28:34.166Z,15.88
2023-04-16T01:31:01.537Z,18.95
2023-04-16T01:33:45.126Z,14.88
2023-04-16T01:36:13.283Z,19.30
2023-04-16T01:38:40.479Z,15.80
2023-04-16T01:41:07.674Z,19.20
2023-04-16T01:43:35.903Z,13.95
2023-04-16T01:46:32.440Z,19.35
2023-04-16T01:49:00.014Z,23.92
2023-04-16T01:51:28.204Z,20.77
2023-04-16T01:53:55.684Z,16.33
2023-04-16T01:56:22.835Z,18.27
2023-04-16T01:58:50.357Z,15.18
2023-04-16T02:01:19.203Z,25.83
2023-04-16T02:03:48.122Z,15.05
2023-04-16T02:06:15.838Z,15.25
2023-04-16T02:08:43.373Z,14.80
2023-04-16T02:11:10.864Z,20.42
2023-04-16T02:13:38.777Z,19.27
2023-04-16T02:16:06.507Z,18.83
2023-04-16T02:18:59.613Z,15.60
2023-04-16T02:21:31.742Z,15.80
2023-04-16T02:23:58.968Z,16.45
2023-04-16T02:26:29.850Z,17.52
2023-04-16T02:29:02.511Z,17.15
2023-04-16T02:31:37.862Z,17.63
2023-04-16T02:34:06.131Z,13.80
2023-04-16T02:36:33.322Z,12.35
2023-04-16T02:39:00.539Z,11.10
2023-04-16T02:41:27.751Z,11.80
2023-04-16T02:43:55.053Z,14.82
2023-04-16T02:46:22.589Z,25.30
2023-04-16T02:48:50.734Z,28.45
2023-04-16T02:51:18.091Z,14.75
2023-04-16T02:53:46.186Z,10.27
2023-04-16T02:56:14.196Z,20.67
2023-04-16T02:58:41.478Z,24.88
2023-04-16T03:01:08.728Z,22.60
2023-04-16T03:03:36.250Z,26.33
2023-04-16T03:06:03.540Z,20.27
2023-04-16T03:08:30.693Z,23.98
2023-04-16T03:10:57.842Z,18.52
2023-04-16T03:13:25.044Z,11.15
2023-04-16T03:15:52.238Z,12.73
2023-04-16T03:18:19.411Z,10.98
2023-04-16T03:20:46.591Z,13.07
2023-04-16T03:23:13.813Z,11.85
2023-04-16T03:25:41.012Z,11.93
2023-04-16T03:28:09.815Z,11.00
2023-04-16T03:30:38.647Z,11.48
2023-04-16T03:33:06.838Z,6.10
2023-04-16T03:35:34.872Z,15.50
2023-04-16T03:38:03.169Z,17.90
2023-04-16T03:40:30.350Z,13.68
2023-04-16T03:42:59.237Z,10.98
2023-04-16T03:45:29.844Z,9.80
2023-04-16T03:47:57.395Z,13.15
2023-04-16T03:50:26.428Z,15.68
2023-04-16T03:52:53.677Z,14.07
2023-04-16T03:55:20.976Z,23.30
2023-04-16T03:57:48.603Z,16.25
2023-04-16T04:00:17.131Z,11.95
2023-04-16T04:03:03.272Z,13.68
2023-04-16T04:05:31.512Z,10.43
2023-04-16T04:07:59.729Z,13.60
2023-04-16T04:10:28.819Z,14.40
2023-04-16T04:12:56.032Z,10.05
2023-04-16T04:15:23.223Z,13.70
2023-04-16T04:17:50.454Z,13.98
2023-04-16T04:20:17.832Z,10.20
2023-04-16T04:22:47.960Z,19.67
2023-04-16T04:25:15.123Z,14.93
2023-04-16T04:27:42.386Z,20.73
2023-04-16T04:30:10.597Z,9.75
2023-04-16T04:32:38.855Z,9.18
2023-04-16T04:35:06.737Z,17.55
2023-04-16T04:37:34.384Z,12.25
2023-04-16T04:40:10.606Z,13.15
2023-04-16T04:42:38.552Z,8.80
2023-04-16T04:45:06.723Z,11.23
2023-04-16T04:47:34.887Z,16.40
2023-04-16T04:50:02.200Z,8.63
2023-04-16T04:52:31.647Z,12.30
2023-04-16T04:54:59.176Z,11.80
2023-04-16T04:57:26.547Z,10.20
2023-04-16T04:59:55.410Z,11.43
2023-04-16T05:02:23.369Z,18.00
2023-04-16T05:04:50.680Z,31.63
2023-04-16T05:07:17.870Z,70.68
2023-04-16T05:09:45.012Z,11.88
2023-04-16T05:12:12.258Z,11.63
2023-04-16T05:14:39.441Z,11.52
2023-04-16T05:17:08.138Z,10.13
2023-04-16T05:19:35.471Z,14.25
2023-04-16T05:22:02.922Z,12.88
2023-04-16T05:24:30.064Z,12.05
2023-04-16T05:26:57.466Z,12.10
2023-04-16T05:29:24.994Z,22.83
2023-04-16T05:31:53.221Z,19.60
2023-04-16T05:34:20.503Z,12.50
2023-04-16T05:36:47.658Z,18.63
2023-04-16T05:39:16.893Z,14.23
2023-04-16T05:41:44.201Z,24.23
2023-04-16T05:44:11.364Z,15.90
2023-04-16T05:46:38.566Z,16.75
2023-04-16T05:49:05.720Z,26.73
2023-04-16T05:51:33.248Z,28.17
2023-04-16T05:54:00.465Z,14.07
2023-04-16T05:56:27.846Z,23.45
2023-04-16T05:58:54.967Z,26.73
2023-04-16T06:01:22.967Z,18.30
2023-04-16T06:03:50.168Z,18.92
2023-04-16T06:06:17.445Z,18.42
2023-04-16T06:08:44.670Z,18.17
2023-04-16T06:11:12.375Z,20.58
2023-04-16T06:13:39.612Z,22.15
2023-04-16T06:16:06.978Z,20.95
2023-04-16T06:18:34.480Z,18.40
2023-04-16T06:21:01.715Z,20.45
2023-04-16T06:23:28.874Z,29.17
2023-04-16T06:25:56.171Z,17.85
2023-04-16T06:28:23.398Z,13.25
2023-04-16T06:30:50.677Z,12.93
2023-04-16T06:33:17.889Z,15.05
2023-04-16T06:35:45.025Z,26.80
2023-04-16T06:38:12.202Z,10.82
2023-04-16T06:40:39.457Z,15.23
2023-04-16T06:43:06.895Z,16.60
2023-04-16T06:45:34.769Z,11.57
2023-04-16T06:48:03.526Z,26.42
2023-04-16T06:50:31.123Z,15.52
2023-04-16T06:52:58.558Z,8.48
2023-04-16T06:55:25.707Z,27.15
2023-04-16T06:57:52.936Z,10.93
2023-04-16T07:00:20.151Z,24.88
2023-04-16T07:02:47.535Z,15.10
2023-04-16T07:05:14.847Z,9.50
2023-04-16T07:07:42.053Z,9.90
2023-04-16T07:10:09.683Z,10.00
2023-04-16T07:12:37.072Z,6.75
2023-04-16T07:15:04.759Z,9.48
2023-04-16T07:17:32.018Z,16.35
2023-04-16T07:19:59.412Z,7.05
2023-04-16T07:22:26.531Z,12.45
2023-04-16T07:24:53.713Z,12.93
2023-04-16T07:27:20.817Z,10.43
2023-04-16T07:29:49.750Z,10.13
2023-04-16T07:32:17.122Z,16.58
2023-04-16T07:34:44.342Z,12.75
2023-04-16T07:37:11.494Z,14.40
2023-04-16T07:39:38.661Z,15.10
2023-04-16T07:42:06.569Z,19.05
2023-04-16T07:44:33.780Z,18.42
2023-04-16T07:47:02.296Z,13.77
2023-04-16T07:49:31.731Z,11.93
2023-04-16T07:51:58.923Z,12.73
2023-04-16T07:54:27.759Z,9.52
2023-04-16T07:56:56.156Z,11.52
2023-04-16T07:59:24.301Z,14.73
2023-04-16T08:01:54.111Z,14.60
2023-04-16T08:04:25.675Z,14.20
2023-04-16T08:06:54.411Z,9.80
2023-04-16T08:09:24.102Z,12.20
2023-04-16T08:11:51.452Z,9.85
2023-04-16T08:14:18.711Z,10.82
2023-04-16T08:16:45.968Z,11.00
2023-04-16T08:19:13.390Z,12.02
2023-04-16T08:21:40.830Z,7.38
2023-04-16T08:24:08.478Z,15.85
2023-04-16T08:26:35.758Z,10.98
2023-04-16T08:29:03.048Z,17.85
2023-04-16T08:31:30.646Z,21.48
2023-04-16T08:33:57.847Z,9.85
2023-04-16T08:36:24.997Z,15.57
2023-04-16T08:38:52.463Z,10.05
2023-04-16T08:41:22.440Z,12.18
2023-04-16T08:43:52.014Z,11.13
2023-04-16T08:46:22.884Z,10.23
2023-04-16T08:48:55.800Z,21.38
2023-04-16T08:51:24.272Z,8.13
2023-04-16T08:54:03.036Z,14.40
2023-04-16T08:56:32.167Z,12.45
2023-04-16T08:59:02.113Z,14.30
2023-04-16T09:01:29.852Z,11.68
2023-04-16T09:03:57.478Z,8.60
2023-04-16T09:06:26.435Z,19.98
2023-04-16T09:08:54.197Z,18.35
2023-04-16T09:11:21.961Z,8.98
2023-04-16T09:13:49.164Z,8.07
2023-04-16T09:16:17.057Z,11.32
2023-04-16T09:18:44.377Z,9.68
2023-04-16T09:21:11.513Z,10.52
2023-04-16T09:23:40.182Z,20.98
2023-04-16T09:26:07.458Z,5.00
2023-04-16T09:28:42.831Z,5.55
2023-04-16T09:31:18.181Z,12.32
2023-04-16T09:34:05.626Z,20.88
2023-04-16T09:36:34.098Z,12.77
2023-04-16T09:39:01.984Z,4.95
2023-04-16T09:41:31.350Z,11.10
2023-04-16T09:44:01.988Z,21.45
2023-04-16T09:46:35.285Z,5.80
2023-04-16T09:49:10.093Z,13.80
2023-04-16T09:51:38.457Z,8.38
2023-04-16T09:54:06.787Z,5.32
2023-04-16T09:56:39.329Z,9.48
2023-04-16T09:59:06.558Z,7.45
2023-04-16T10:01:33.828Z,6.57
2023-04-16T10:04:01.115Z,10.95
2023-04-16T10:06:29.547Z,6.68
2023-04-16T10:08:57.222Z,7.90
2023-04-16T10:11:25.963Z,16.33
2023-04-16T10:13:53.404Z,9.25
2023-04-16T10:16:22.425Z,6.05
2023-04-16T10:18:49.747Z,13.60
2023-04-16T10:21:17.242Z,9.95
2023-04-16T10:23:44.518Z,6.97
2023-04-16T10:26:11.840Z,6.15
2023-04-16T10:28:39.410Z,8.98
2023-04-16T10:31:09.669Z,6.22
2023-04-16T10:33:40.908Z,9.00
2023-04-16T10:36:13.554Z,10.45
2023-04-16T10:38:48.461Z,12.70
2023-04-16T10:41:16.010Z,8.30
2023-04-16T10:43:48.118Z,9.27
2023-04-16T10:46:19.247Z,12.48
2023-04-16T10:48:50.439Z,9.57
2023-04-16T10:51:34.939Z,14.88
2023-04-16T10:54:08.339Z,10.55
2023-04-16T10:56:36.920Z,20.77
2023-04-16T10:59:23.973Z,7.45
2023-04-16T11:01:54.044Z,20.40
2023-04-16T11:04:21.656Z,7.05
2023-04-16T11:07:21.048Z,9.85
2023-04-16T11:10:12.892Z,6.25
2023-04-16T11:12:47.144Z,9.55
2023-04-16T11:15:16.347Z,8.85
2023-04-16T11:17:45.849Z,15.05
2023-04-16T11:20:23.684Z,23.05
2023-04-16T11:22:55.528Z,7.05
2023-04-16T11:25:25.596Z,7.20
2023-04-16T11:27:53.552Z,11.18
2023-04-16T11:30:33.374Z,13.20
2023-04-16T11:33:18.879Z,10.60
2023-04-16T11:35:58.016Z,7.32
2023-04-16T11:38:38.422Z,9.48
2023-04-16T11:41:05.536Z,17.83
2023-04-16T11:43:32.732Z,17.25
2023-04-16T11:46:12.860Z,15.10
2023-04-16T11:48:51.410Z,12.30
2023-04-16T11:51:19.804Z,9.88
2023-04-16T11:53:52.913Z,8.15
2023-04-16T11:56:30.781Z,14.70
2023-04-16T11:59:11.968Z,8.82
2023-04-16T12:01:41.347Z,6.43
2023-04-16T12:04:09.180Z,11.10
2023-04-16T12:06:36.837Z,8.63
2023-04-16T12:09:25.800Z,11.13
2023-04-16T12:11:53.827Z,9.27
2023-04-16T12:14:21.636Z,12.60
2023-04-16T12:16:49.177Z,8.73
2023-04-16T12:19:16.516Z,10.77
2023-04-16T12:21:46.070Z,12.60
2023-04-16T12:24:15.922Z,12.95
2023-04-16T12:26:45.433Z,10.85
2023-04-16T12:29:24.238Z,10.50
2023-04-16T12:31:52.898Z,9.38
2023-04-16T12:34:21.631Z,10.88
2023-04-16T12:37:12.406Z,8.80
2023-04-16T12:39:39.638Z,15.65
2023-04-16T12:42:09.949Z,15.85
2023-04-16T12:44:37.128Z,16.60
2023-04-16T12:47:05.689Z,21.92
2023-04-16T12:49:32.835Z,11.57
2023-04-16T12:52:00.031Z,11.13
2023-04-16T12:54:31.324Z,8.88
2023-04-16T12:56:58.507Z,8.93
2023-04-16T12:59:25.627Z,7.82
2023-04-16T13:01:52.901Z,10.68
2023-04-16T13:04:20.773Z,8.35
2023-04-16T13:06:49.209Z,9.15
2023-04-16T13:09:16.534Z,9.73
2023-04-16T13:11:43.750Z,14.80
2023-04-16T13:14:10.886Z,10.23
2023-04-16T13:16:38.958Z,14.45
2023-04-16T13:19:06.214Z,11.73
2023-04-16T13:21:34.399Z,12.77
2023-04-16T13:24:01.599Z,14.10
2023-04-16T13:26:28.811Z,17.73
2023-04-16T13:28:56.058Z,14.05
2023-04-16T13:31:23.344Z,12.25
2023-04-16T13:33:50.778Z,13.93
2023-04-16T13:36:17.914Z,10.07
2023-04-16T13:38:45.859Z,13.68
2023-04-16T13:41:13.118Z,9.90
2023-04-16T13:43:40.470Z,12.43
2023-04-16T13:46:07.869Z,17.50
2023-04-16T13:48:35.151Z,14.07
2023-04-16T13:51:03.027Z,19.20
2023-04-16T13:53:30.171Z,6.45
2023-04-16T13:55:57.411Z,14.77
2023-04-16T13:58:24.866Z,11.07
2023-04-16T14:00:52.404Z,9.23
2023-04-16T14:03:19.747Z,9.10
2023-04-16T14:05:47.151Z,7.35
2023-04-16T14:08:17.054Z,7.00
2023-04-16T14:10:44.225Z,5.53
2023-04-16T14:13:12.432Z,9.13
2023-04-16T14:15:39.987Z,7.95
2023-04-16T14:18:07.290Z,5.57
2023-04-16T14:20:34.515Z,9.73
2023-04-16T14:23:02.062Z,11.93
2023-04-16T14:25:29.264Z,9.55
2023-04-16T14:27:56.449Z,9.00
2023-04-16T14:30:23.585Z,6.65
2023-04-16T14:32:51.204Z,12.60
2023-04-16T14:35:18.511Z,7.13
2023-04-16T14:37:46.680Z,9.55
2023-04-16T14:40:14.197Z,10.43
2023-04-16T14:42:41.483Z,11.25
2023-04-16T14:45:09.204Z,11.52
2023-04-16T14:47:37.843Z,6.97
2023-04-16T14:50:06.380Z,8.48
2023-04-16T14:52:33.484Z,13.65
2023-04-16T14:55:00.852Z,18.00
2023-04-16T14:57:27.996Z,12.43
2023-04-16T14:59:55.198Z,8.68
2023-04-16T15:02:22.677Z,9.13
2023-04-16T15:04:50.050Z,8.63
2023-04-16T15:07:17.242Z,15.80
2023-04-16T15:09:44.476Z,6.45
2023-04-16T15:12:11.679Z,13.70
2023-04-16T15:14:38.971Z,10.52
2023-04-16T15:17:06.222Z,9.60
2023-04-16T15:19:33.489Z,14.43
2023-04-16T15:22:00.614Z,6.35
2023-04-16T15:24:27.795Z,6.38
2023-04-16T15:26:54.927Z,12.63
2023-04-16T15:29:22.069Z,6.13
2023-04-16T15:31:49.262Z,9.93
2023-04-16T15:34:16.440Z,9.20
2023-04-16T15:36:43.615Z,7.82
2023-04-16T15:39:11.201Z,6.28
2023-04-16T15:41:50.192Z,9.98
2023-04-16T15:44:26.818Z,9.43
2023-04-16T15:46:54.022Z,17.45
2023-04-16T15:49:21.256Z,14.18
2023-04-16T15:51:48.502Z,8.20
2023-04-16T15:54:15.705Z,11.10
2023-04-16T15:56:42.986Z,9.23
2023-04-16T15:59:10.524Z,10.38
2023-04-16T16:01:37.915Z,15.10
2023-04-16T16:04:08.201Z,11.55
2023-04-16T16:06:38.207Z,10.57
2023-04-16T16:09:05.513Z,6.90
2023-04-16T16:11:32.793Z,29.67
2023-04-16T16:14:03.020Z,13.52
2023-04-16T16:16:30.873Z,22.50
2023-04-16T16:18:58.058Z,23.17
2023-04-16T16:21:25.183Z,14.80
2023-04-16T16:23:52.333Z,20.52
2023-04-16T16:26:20.679Z,40.00
2023-04-16T16:28:48.126Z,18.77
2023-04-16T16:31:15.283Z,37.03
2023-04-16T16:33:42.476Z,15.55
2023-04-16T16:36:12.762Z,23.67
2023-04-16T16:38:41.188Z,21.48
2023-04-16T16:41:08.546Z,19.85
2023-04-16T16:44:03.859Z,16.13
2023-04-16T16:46:31.131Z,16.33
2023-04-16T16:48:58.605Z,16.25
2023-04-16T16:51:26.439Z,15.18
2023-04-16T16:53:53.732Z,14.23
2023-04-16T16:56:20.879Z,14.63
2023-04-16T16:58:48.092Z,24.85
2023-04-16T17:01:15.609Z,28.10
2023-04-16T17:03:43.004Z,16.77
2023-04-16T17:06:10.331Z,17.50
2023-04-16T17:08:37.562Z,16.58
2023-04-16T17:11:04.942Z,23.13
2023-04-16T17:13:32.825Z,21.88
2023-04-16T17:16:00.208Z,15.60
2023-04-16T17:18:28.333Z,17.08
2023-04-16T17:20:55.476Z,28.88
2023-04-16T17:23:22.686Z,26.30
2023-04-16T17:25:50.253Z,20.63
2023-04-16T17:28:17.599Z,25.90
2023-04-16T17:30:45.759Z,25.00
2023-04-16T17:33:13.042Z,26.05
2023-04-16T17:35:41.105Z,24.17
2023-04-16T17:38:08.227Z,20.70
2023-04-16T17:40:35.475Z,25.88
2023-04-16T17:43:02.752Z,22.95
2023-04-16T17:45:29.950Z,26.02
2023-04-16T17:47:57.084Z,22.23
2023-04-16T17:50:24.416Z,27.40
2023-04-16T17:52:51.757Z,25.13
2023-04-16T17:55:18.955Z,25.27
2023-04-16T17:57:46.670Z,28.55
2023-04-16T18:00:14.816Z,36.13
2023-04-16T18:02:42.273Z,29.65
2023-04-16T18:05:09.881Z,31.83
2023-04-16T18:07:37.763Z,27.02
2023-04-16T18:10:06.378Z,22.75
2023-04-16T18:12:33.771Z,23.88
2023-04-16T18:15:01.001Z,20.15
2023-04-16T18:17:29.094Z,25.63
2023-04-16T18:19:56.717Z,17.17
2023-04-16T18:22:26.247Z,22.40
2023-04-16T18:24:55.150Z,26.38
2023-04-16T18:27:23.230Z,22.40
2023-04-16T18:29:51.386Z,23.95
2023-04-16T18:32:18.741Z,21.88
2023-04-16T18:34:46.066Z,28.20
2023-04-16T18:37:13.246Z,17.63
2023-04-16T18:39:40.407Z,19.60
2023-04-16T18:42:07.974Z,20.52
2023-04-16T18:44:35.228Z,17.92
2023-04-16T18:47:02.607Z,25.50
2023-04-16T18:49:29.924Z,27.25
2023-04-16T18:51:57.098Z,30.98
2023-04-16T18:54:24.353Z,31.73
2023-04-16T18:56:51.570Z,19.35
2023-04-16T18:59:18.693Z,25.98
2023-04-16T19:01:45.872Z,31.27
2023-04-16T19:04:13.032Z,27.15
2023-04-16T19:06:40.290Z,21.17
2023-04-16T19:09:09.459Z,35.60
2023-04-16T19:14:05.931Z,29.55
2023-04-16T19:16:33.315Z,26.40
2023-04-16T19:19:01.098Z,33.30
2023-04-16T19:21:28.445Z,26.88
2023-04-16T19:23:55.778Z,32.67
2023-04-16T19:26:22.972Z,29.25
2023-04-16T19:28:50.136Z,40.30
2023-04-16T19:31:17.504Z,25.05
2023-04-16T19:33:44.617Z,25.90
2023-04-16T19:36:11.775Z,25.08
2023-04-16T19:38:38.868Z,22.85
2023-04-16T19:41:06.190Z,26.33
2023-04-16T19:43:33.397Z,24.63
2023-04-16T19:46:00.558Z,23.33
2023-04-16T19:48:27.778Z,19.23
2023-04-16T19:50:54.890Z,34.85
2023-04-16T19:53:21.990Z,30.58
2023-04-16T19:55:49.344Z,20.15
2023-04-16T19:58:16.475Z,31.17
2023-04-16T20:00:43.822Z,30.92
2023-04-16T20:03:11.049Z,28.08
2023-04-16T20:05:38.369Z,31.52
2023-04-16T20:08:05.935Z,22.88
2023-04-16T20:10:33.115Z,19.23
2023-04-16T20:13:00.504Z,19.50
2023-04-16T20:15:27.736Z,18.98
2023-04-16T20:17:56.374Z,19.88
2023-04-16T20:20:23.810Z,21.45
2023-04-16T20:22:51.136Z,22.80
2023-04-16T20:25:21.751Z,23.88
2023-04-16T20:27:48.933Z,16.52
2023-04-16T20:30:16.459Z,20.55
2023-04-16T20:32:43.705Z,15.88
2023-04-16T20:35:11.633Z,19.80
2023-04-16T20:37:39.268Z,22.85
2023-04-16T20:40:08.950Z,19.60
2023-04-16T20:42:36.302Z,20.98
2023-04-16T20:45:03.640Z,30.80
2023-04-16T20:47:34.842Z,32.75
2023-04-16T20:50:02.988Z,21.65
2023-04-16T20:52:31.278Z,29.17
2023-04-16T20:54:58.540Z,22.38
2023-04-16T20:57:28.126Z,26.15
2023-04-16T20:59:56.521Z,26.35
2023-04-16T21:02:24.436Z,22.48
2023-04-16T21:04:52.245Z,24.70
2023-04-16T21:07:19.565Z,23.10
2023-04-16T21:09:46.749Z,21.23
2023-04-16T21:12:13.935Z,20.55
2023-04-16T21:14:41.509Z,26.48
2023-04-16T21:17:08.635Z,18.95
2023-04-16T21:19:35.748Z,17.55
2023-04-16T21:22:02.969Z,30.17
2023-04-16T21:24:32.962Z,22.60
2023-04-16T21:27:00.167Z,23.40
2023-04-16T21:29:27.503Z,18.50
2023-04-16T21:31:55.112Z,16.95
2023-04-16T21:34:22.377Z,21.73
2023-04-16T21:36:49.542Z,17.40
2023-04-16T21:39:20.221Z,18.52
2023-04-16T21:41:50.462Z,21.20
2023-04-16T21:44:17.572Z,20.45
2023-04-16T21:46:44.721Z,17.05
2023-04-16T21:49:12.112Z,20.95
2023-04-16T21:51:43.155Z,19.38
2023-04-16T21:54:10.441Z,16.23
2023-04-16T21:56:37.586Z,19.45
2023-04-16T21:59:04.742Z,19.42
2023-04-16T22:01:32.105Z,16.00
2023-04-16T22:03:59.361Z,20.63
2023-04-16T22:06:29.582Z,17.63
2023-04-16T22:08:58.944Z,20.98
2023-04-16T22:11:26.088Z,23.02
2023-04-16T22:13:53.803Z,27.42
2023-04-16T22:16:20.967Z,27.33
2023-04-16T22:18:48.195Z,18.73
2023-04-16T22:21:15.561Z,14.38
2023-04-16T22:23:42.735Z,15.85
2023-04-16T22:26:10.192Z,18.35
2023-04-16T22:28:37.310Z,19.20
2023-04-16T22:31:04.656Z,19.45
2023-04-16T22:33:31.886Z,22.50
2023-04-16T22:36:00.001Z,21.02
2023-04-16T22:38:27.157Z,24.98
2023-04-16T22:40:54.334Z,20.77
2023-04-16T22:43:21.492Z,23.25
2023-04-16T22:45:48.859Z,14.82
2023-04-16T22:48:16.488Z,21.02
2023-04-16T22:50:48.719Z,20.08
2023-04-16T22:53:16.212Z,21.50
2023-04-16T22:55:43.385Z,25.02
2023-04-16T22:58:10.567Z,22.35
2023-04-16T23:00:37.701Z,29.65
2023-04-16T23:03:05.170Z,26.40
2023-04-16T23:05:32.529Z,20.52
2023-04-16T23:07:59.625Z,23.08
2023-04-16T23:10:27.537Z,30.10
2023-04-16T23:12:54.654Z,15.38
2023-04-16T23:15:21.828Z,24.65
2023-04-16T23:17:49.426Z,17.92
2023-04-16T23:20:16.833Z,20.05
2023-04-16T23:22:43.953Z,22.48
2023-04-16T23:25:11.100Z,21.67
2023-04-16T23:27:38.449Z,22.52
2023-04-16T23:30:06.852Z,17.75
2023-04-16T23:32:34.682Z,27.38
2023-04-16T23:35:01.898Z,20.52
2023-04-16T23:37:31.641Z,23.60
2023-04-16T23:39:58.936Z,19.27
2023-04-16T23:42:26.069Z,16.35
2023-04-16T23:44:53.208Z,17.88
2023-04-16T23:47:20.385Z,17.48
2023-04-16T23:49:47.570Z,18.25
2023-04-16T23:52:14.875Z,21.73
2023-04-16T23:54:42.031Z,22.90
2023-04-16T23:57:09.330Z,92.43
2023-04-16T23:59:36.496Z,96.85
